Time;durP1;ratioP1;P1;durP2;ratioP2;P2;SDS_P1;SDS_P2;PMS_P1;PMS_P2;Temp;Humidity;BMP_temperature;BMP_pressure;BME280_temperature;BME280_humidity;BME280_pressure;Samples;Min_cycle;Max_cycle;Signal;HPM_P1;HPM_P2
2023/01/06 04:46:32;;;;;;;1.30;1.20;;;;;;;6.65;100.00;100952.91;5703799;28;20179;-85
2023/01/06 04:49:36;;;;;;;1.35;1.25;;;;;;;6.73;100.00;100963.78;5343419;33;34621;-84
2023/01/06 04:52:39;;;;;;;2.20;1.25;;;;;;;6.74;100.00;100954.75;5343402;33;34878;-84
2023/01/06 04:55:42;;;;;;;1.30;1.30;;;;;;;6.60;100.00;100963.19;5329620;33;33039;-85
2023/01/06 04:58:44;;;;;;;3.35;1.55;;;;;;;6.58;100.00;100959.78;5342816;33;34472;-83
2023/01/06 05:01:47;;;;;;;1.37;1.27;;;;;;;6.61;100.00;100972.91;5329064;33;32325;-83
2023/01/06 05:04:50;;;;;;;1.40;1.30;;;;;;;6.49;100.00;100982.00;5342699;33;33622;-84
2023/01/06 05:07:54;;;;;;;5.90;1.52;;;;;;;6.37;100.00;100998.16;5325981;33;33985;-85
2023/01/06 05:11:01;;;;;;;3.33;1.67;;;;;;;6.17;100.00;101025.78;5324883;33;34843;-83
2023/01/06 05:14:04;;;;;;;1.50;1.40;;;;;;;6.03;100.00;101024.34;5325350;33;34877;-84
2023/01/06 05:17:07;;;;;;;2.75;1.50;;;;;;;5.98;100.00;101037.25;5329888;33;34280;-88
2023/01/06 05:20:10;;;;;;;1.95;1.77;;;;;;;5.99;100.00;101038.09;5341434;33;35102;-88
2023/01/06 05:23:13;;;;;;;2.22;1.60;;;;;;;5.95;100.00;101042.84;5325209;33;33625;-88
2023/01/06 05:26:20;;;;;;;1.90;1.80;;;;;;;5.86;100.00;101043.63;5324997;33;34811;-88
2023/01/06 05:29:22;;;;;;;4.60;2.00;;;;;;;5.90;100.00;101037.03;5334171;33;33568;-84
2023/01/06 05:32:26;;;;;;;3.17;1.90;;;;;;;5.84;100.00;101035.72;5325097;33;33717;-85
2023/01/06 05:35:29;;;;;;;2.00;1.58;;;;;;;5.96;100.00;101036.53;5325675;33;34183;-84
2023/01/06 05:38:32;;;;;;;2.33;1.62;;;;;;;5.97;100.00;101032.03;5325116;33;34225;-85
2023/01/06 05:41:36;;;;;;;3.15;2.03;;;;;;;6.00;100.00;101039.81;5325526;33;34915;-84
2023/01/06 05:44:38;;;;;;;2.85;1.83;;;;;;;6.16;100.00;101036.63;5324989;33;33962;-85
2023/01/06 05:47:41;;;;;;;1.85;1.75;;;;;;;6.05;100.00;101038.41;5322798;33;34062;-85
2023/01/06 05:50:44;;;;;;;4.78;2.00;;;;;;;6.01;100.00;101052.19;5326163;33;32760;-84
2023/01/06 05:53:47;;;;;;;3.10;1.77;;;;;;;5.90;100.00;101047.72;5321716;33;34388;-85
2023/01/06 05:56:50;;;;;;;2.08;1.80;;;;;;;5.88;100.00;101063.87;5343290;33;35009;-85
2023/01/06 05:59:53;;;;;;;2.53;1.98;;;;;;;6.04;100.00;101066.12;5330237;33;33946;-85
2023/01/06 06:02:56;;;;;;;2.12;1.83;;;;;;;6.13;100.00;101072.50;5325562;33;33764;-84
2023/01/06 06:06:03;;;;;;;2.53;1.70;;;;;;;6.35;100.00;101080.38;5327311;33;33590;-85
2023/01/06 06:09:06;;;;;;;5.37;1.77;;;;;;;6.40;100.00;101079.12;5314606;33;34992;-84
2023/01/06 06:12:09;;;;;;;3.58;2.42;;;;;;;6.40;100.00;101079.12;5314419;33;33676;-84
2023/01/06 06:15:12;;;;;;;2.30;1.70;;;;;;;6.38;100.00;101073.91;5328847;33;33542;-84
2023/01/06 06:18:15;;;;;;;3.50;1.65;;;;;;;6.31;100.00;101073.56;5347902;33;35085;-84
2023/01/06 06:21:21;;;;;;;1.75;1.65;;;;;;;6.61;100.00;101071.91;5341946;33;34243;-85
2023/01/06 06:24:24;;;;;;;1.80;1.70;;;;;;;6.74;100.00;101068.97;5332291;33;34132;-84
2023/01/06 06:27:27;;;;;;;1.73;1.62;;;;;;;6.77;100.00;101082.09;5329115;33;34350;-84
2023/01/06 06:30:30;;;;;;;1.73;1.62;;;;;;;6.76;100.00;101080.41;5329094;33;34714;-84
2023/01/06 06:33:33;;;;;;;2.67;2.08;;;;;;;6.61;100.00;101082.59;5335648;33;33559;-84
2023/01/06 06:36:36;;;;;;;4.45;2.25;;;;;;;6.55;100.00;101089.34;5332583;33;32986;-84
2023/01/06 06:39:39;;;;;;;4.47;1.83;;;;;;;6.47;100.00;101089.16;5332027;33;32955;-84
2023/01/06 06:42:42;;;;;;;4.97;2.03;;;;;;;6.49;100.00;101097.03;5350580;33;35499;-84
2023/01/06 06:45:46;;;;;;;2.47;2.00;;;;;;;6.49;100.00;101099.69;5353336;33;36692;-84
2023/01/06 06:48:49;;;;;;;3.33;2.00;;;;;;;6.47;100.00;101107.03;5344799;33;34879;-84
2023/01/06 06:51:52;;;;;;;2.47;1.75;;;;;;;6.49;100.00;101115.75;5354063;33;33588;-84
2023/01/06 06:54:57;;;;;;;2.97;1.77;;;;;;;6.48;100.00;101108.72;5346642;33;34603;-84
2023/01/06 06:57:59;;;;;;;2.42;1.62;;;;;;;6.57;100.00;101115.94;5308931;33;32577;-84
2023/01/06 07:01:11;;;;;;;4.35;2.00;;;;;;;6.51;100.00;101111.97;5311423;33;238457;-84
2023/01/06 07:04:14;;;;;;;1.75;1.65;;;;;;;6.63;100.00;101117.22;5325894;33;34105;-84
2023/01/06 07:07:17;;;;;;;6.50;1.95;;;;;;;6.64;100.00;101119.78;5326338;33;34027;-84
2023/01/06 07:10:20;;;;;;;2.10;2.00;;;;;;;6.59;100.00;101117.50;5312657;33;32424;-84
2023/01/06 07:13:23;;;;;;;5.15;2.10;;;;;;;6.58;100.00;101125.66;5324700;33;34580;-84
2023/01/06 07:16:26;;;;;;;2.87;1.90;;;;;;;6.59;100.00;101138.91;5326190;33;33898;-84
2023/01/06 07:19:29;;;;;;;4.57;2.45;;;;;;;6.62;100.00;101139.63;5312642;33;32496;-84
2023/01/06 07:22:35;;;;;;;3.15;2.30;;;;;;;6.63;100.00;101141.31;5327192;33;34840;-84
2023/01/06 07:25:39;;;;;;;7.22;2.62;;;;;;;6.73;100.00;101148.41;5329347;33;35022;-87
2023/01/06 07:28:42;;;;;;;6.15;2.55;;;;;;;6.76;100.00;101147.31;5331466;33;34150;-88
2023/01/06 07:31:45;;;;;;;5.80;2.40;;;;;;;6.82;100.00;101146.75;5329222;33;34185;-88
2023/01/06 07:34:48;;;;;;;3.58;2.28;;;;;;;6.88;100.00;101156.09;5312725;33;32841;-88
2023/01/06 07:37:51;;;;;;;2.72;2.33;;;;;;;6.90;100.00;101146.91;5312876;33;33954;-85
2023/01/06 07:40:59;;;;;;;3.15;2.70;;;;;;;6.98;100.00;101155.13;5327456;33;33924;-85
2023/01/06 07:44:02;;;;;;;3.67;2.20;;;;;;;7.13;100.00;101150.25;5308328;33;33775;-84
2023/01/06 07:47:05;;;;;;;4.97;3.05;;;;;;;7.21;100.00;101150.41;5334715;33;33654;-84
2023/01/06 07:50:08;;;;;;;4.37;2.60;;;;;;;7.41;100.00;101139.75;5338139;33;34022;-84
2023/01/06 07:53:11;;;;;;;6.43;2.65;;;;;;;7.67;100.00;101140.06;5321020;33;34077;-84
2023/01/06 07:56:14;;;;;;;4.47;2.67;;;;;;;7.86;100.00;101142.72;5326160;33;33543;-84
2023/01/06 07:59:17;;;;;;;3.92;2.40;;;;;;;7.94;100.00;101145.53;5321119;33;34777;-84
2023/01/06 08:02:21;;;;;;;4.07;2.87;;;;;;;8.01;100.00;101150.34;5325798;33;34551;-84
2023/01/06 08:05:24;;;;;;;7.68;3.42;;;;;;;8.04;100.00;101155.41;5317795;33;33848;-84
2023/01/06 08:08:26;;;;;;;4.07;2.65;;;;;;;8.11;100.00;101160.09;5335876;33;34017;-84
2023/01/06 08:11:30;;;;;;;3.45;2.50;;;;;;;8.18;100.00;101163.88;5326542;33;34795;-84
2023/01/06 08:14:32;;;;;;;4.78;2.60;;;;;;;8.26;100.00;101173.06;5328349;33;34042;-84
2023/01/06 08:17:35;;;;;;;3.25;2.62;;;;;;;8.42;100.00;101173.31;5330389;33;33513;-84
2023/01/06 08:20:38;;;;;;;3.25;2.10;;;;;;;8.53;100.00;101165.13;5328087;33;34213;-84
2023/01/06 08:23:41;;;;;;;6.05;3.00;;;;;;;8.54;100.00;101156.09;5327894;33;33953;-83
2023/01/06 08:26:43;;;;;;;3.30;2.45;;;;;;;8.53;100.00;101159.75;5325115;33;35566;-84
2023/01/06 08:29:48;;;;;;;3.95;2.37;;;;;;;8.53;100.00;101140.97;5325269;33;34377;-84
2023/01/06 08:32:56;;;;;;;5.32;2.78;;;;;;;8.59;100.00;101137.69;5324691;33;33853;-83
2023/01/06 08:36:03;;;;;;;4.18;2.20;;;;;;;8.64;100.00;101129.22;5308214;33;34085;-83
2023/01/06 08:39:07;;;;;;;3.47;2.50;;;;;;;8.72;99.60;101125.81;5312679;33;32381;-83
2023/01/06 08:42:10;;;;;;;6.87;2.40;;;;;;;8.72;99.53;101134.69;5325518;33;34784;-83
2023/01/06 08:45:12;;;;;;;6.03;2.62;;;;;;;8.79;99.76;101130.41;5325172;33;33973;-82
2023/01/06 08:48:16;;;;;;;6.90;2.50;;;;;;;8.84;98.64;101136.19;5324843;33;33933;-82
2023/01/06 08:51:22;;;;;;;3.08;2.10;;;;;;;8.91;98.67;101128.37;5325200;33;33897;-82
2023/01/06 08:54:27;;;;;;;3.35;2.28;;;;;;;8.84;99.19;101128.13;5327274;33;34042;-83
2023/01/06 08:57:30;;;;;;;2.58;1.80;;;;;;;8.72;99.72;101123.12;5313800;33;33511;-82
2023/01/06 09:00:34;;;;;;;2.35;2.15;;;;;;;8.83;98.94;101131.81;5338279;33;34354;-84
2023/01/06 09:03:36;;;;;;;5.00;2.20;;;;;;;9.08;98.90;101130.28;5325871;33;33772;-83
2023/01/06 09:06:42;;;;;;;4.10;2.20;;;;;;;9.31;96.34;101133.41;5326429;33;33812;-83
2023/01/06 09:09:44;;;;;;;2.08;1.75;;;;;;;9.28;96.16;101127.50;5325674;33;34391;-83
2023/01/06 09:12:48;;;;;;;3.15;1.80;;;;;;;9.09;97.14;101137.31;5325446;33;33718;-83
2023/01/06 09:15:51;;;;;;;2.60;1.92;;;;;;;9.02;94.94;101147.00;5330702;33;34931;-82
2023/01/06 09:18:54;;;;;;;2.35;1.77;;;;;;;8.94;93.83;101157.62;5324552;33;32315;-83
2023/01/06 09:21:57;;;;;;;1.98;1.67;;;;;;;8.84;92.61;101163.03;5342669;33;34023;-84
2023/01/06 09:25:03;;;;;;;2.17;1.90;;;;;;;8.79;92.79;101168.00;5340504;33;33937;-83
2023/01/06 09:28:06;;;;;;;2.70;1.80;;;;;;;8.92;92.51;101172.19;5325294;33;34759;-83
2023/01/06 09:31:10;;;;;;;6.93;2.55;;;;;;;9.08;91.57;101173.25;5324548;33;34115;-83
2023/01/06 09:34:12;;;;;;;5.90;2.03;;;;;;;9.17;89.70;101171.53;5335072;33;33632;-86
2023/01/06 09:37:15;;;;;;;5.53;2.80;;;;;;;9.31;89.38;101170.19;5344154;33;33930;-87
2023/01/06 09:40:24;;;;;;;3.78;2.47;;;;;;;9.24;90.13;101167.25;5326261;33;34284;-87
2023/01/06 09:43:44;;;;;;;4.95;2.30;;;;;;;9.20;89.39;101165.00;5321666;33;32985;-84
2023/01/06 09:46:48;;;;;;;;;;;;;;;9.28;88.73;101160.56;5333341;33;33966;-83
2023/01/06 09:50:16;;;;;;;5.03;2.05;;;;;;;9.40;88.84;101168.44;5335905;33;34287;-83
2023/01/06 09:53:24;;;;;;;2.67;2.15;;;;;;;9.58;87.66;101157.69;5340348;33;34999;-84
2023/01/06 09:56:29;;;;;;;2.80;1.67;;;;;;;9.68;87.43;101171.91;5313242;33;34066;-84
2023/01/06 10:00:03;;;;;;;3.22;1.90;;;;;;;9.66;85.00;101165.84;5318835;33;34250;-84
2023/01/06 10:03:15;;;;;;;2.10;1.95;;;;;;;9.58;85.09;101169.28;5305197;33;32898;-84
2023/01/06 10:06:29;;;;;;;1.80;1.70;;;;;;;9.55;84.36;101164.22;5322287;33;33960;-84
2023/01/06 10:10:16;;;;;;;1.83;1.70;;;;;;;9.57;83.16;101162.25;5315416;33;34484;-84
2023/01/06 10:13:26;;;;;;;2.87;1.90;;;;;;;9.34;83.94;101164.50;5326941;33;34252;-85
2023/01/06 10:17:00;;;;;;;4.50;2.37;;;;;;;9.39;83.83;101162.22;5325987;33;34638;-84
2023/01/06 10:20:29;;;;;;;4.05;2.12;;;;;;;9.19;83.86;101158.78;5328145;33;34226;-84
2023/01/06 10:24:04;;;;;;;7.22;2.25;;;;;;;9.19;84.54;101157.94;5325786;33;33434;-84
2023/01/06 10:27:16;;;;;;;4.43;2.40;;;;;;;9.03;86.08;101147.84;5301373;33;34334;-83
2023/01/06 10:30:25;;;;;;;2.85;1.95;;;;;;;9.00;86.81;101153.50;5314874;33;32499;-84
2023/01/06 10:33:36;;;;;;;6.12;2.42;;;;;;;8.93;86.17;101147.88;5319891;33;33404;-83
2023/01/06 10:36:43;;;;;;;4.10;2.20;;;;;;;9.02;85.59;101155.06;5307203;33;34273;-84
2023/01/06 10:39:58;;;;;;;2.53;2.23;;;;;;;9.05;86.74;101149.37;5324856;33;34183;-83
2023/01/06 10:43:05;;;;;;;4.87;2.53;;;;;;;9.18;83.44;101140.12;5333184;33;33996;-88
2023/01/06 10:46:08;;;;;;;2.40;2.15;;;;;;;9.36;82.62;101138.34;5345826;33;34904;-87
2023/01/06 10:49:17;;;;;;;6.53;2.30;;;;;;;9.58;80.65;101138.87;5335619;33;34300;-84
2023/01/06 10:52:21;;;;;;;4.78;2.00;;;;;;;9.74;79.70;101139.06;5315460;33;34895;-84
2023/01/06 10:55:24;;;;;;;4.03;2.28;;;;;;;9.94;78.29;101137.03;5316834;33;34046;-84
2023/01/06 10:58:51;;;;;;;2.20;2.00;;;;;;;9.85;77.74;101146.88;5325454;33;34531;-84
2023/01/06 11:01:58;;;;;;;3.70;2.12;;;;;;;9.80;79.37;101142.94;5320718;33;33918;-83
2023/01/06 11:05:01;;;;;;;2.47;2.25;;;;;;;9.87;79.28;101139.50;5322674;33;33999;-83
2023/01/06 11:08:07;;;;;;;3.92;2.47;;;;;;;9.81;77.87;101144.66;5312733;33;32486;-84
2023/01/06 11:11:13;;;;;;;5.10;2.20;;;;;;;9.75;79.08;101141.56;5312252;33;33424;-84
2023/01/06 11:14:31;;;;;;;13.27;2.60;;;;;;;9.77;79.27;101139.59;5327324;33;33629;-84
2023/01/06 11:17:35;;;;;;;4.95;2.25;;;;;;;9.93;78.31;101135.34;5324602;33;34628;-84
2023/01/06 11:20:38;;;;;;;6.20;2.40;;;;;;;9.83;79.57;101137.25;5329581;33;33965;-84
2023/01/06 11:23:43;;;;;;;4.78;2.37;;;;;;;9.80;78.12;101122.31;5316825;33;32366;-84
2023/01/06 11:26:54;;;;;;;4.35;2.05;;;;;;;9.91;78.65;101123.88;5340578;33;33504;-84
2023/01/06 11:29:57;;;;;;;3.20;2.05;;;;;;;10.17;76.07;101129.31;5334778;33;34481;-84
2023/01/06 11:33:00;;;;;;;4.03;1.98;;;;;;;10.20;75.78;101129.00;5329044;33;34437;-84
2023/01/06 11:36:12;;;;;;;3.47;2.00;;;;;;;10.33;74.97;101123.25;5309183;33;32697;-84
2023/01/06 11:39:27;;;;;;;2.80;2.08;;;;;;;10.52;74.55;101130.25;5308917;33;33487;-84
2023/01/06 11:42:30;;;;;;;4.22;2.22;;;;;;;10.64;75.01;101129.81;5321436;33;34830;-84
2023/01/06 11:45:55;;;;;;;5.12;2.50;;;;;;;11.00;75.41;101135.06;5312051;33;32108;-84
2023/01/06 11:49:13;;;;;;;4.45;2.42;;;;;;;11.16;74.11;101120.78;5323568;33;32780;-85
2023/01/06 11:52:18;;;;;;;;;;;;;;;11.35;71.85;101125.91;5318794;33;32363;-84
2023/01/06 11:55:21;;;;;;;2.92;2.08;;;;;;;11.49;71.34;101115.47;5311703;33;34507;-84
2023/01/06 11:59:03;;;;;;;3.37;2.00;;;;;;;12.09;70.59;101120.63;5311533;33;31968;-84
2023/01/06 12:02:14;;;;;;;3.05;2.05;;;;;;;12.15;68.43;101116.41;5325730;33;33095;-84
2023/01/06 12:05:38;;;;;;;3.92;2.28;;;;;;;12.15;68.62;101114.53;5327369;33;34141;-84
2023/01/06 12:08:48;;;;;;;1.92;1.73;;;;;;;12.35;68.04;101109.62;5330618;33;34200;-84
2023/01/06 12:11:54;;;;;;;3.30;2.08;;;;;;;12.29;68.06;101104.91;5340679;33;33923;-84
2023/01/06 12:14:57;;;;;;;4.32;2.70;;;;;;;12.51;67.70;101097.09;5315243;33;32562;-84
2023/01/06 12:18:06;;;;;;;3.00;2.05;;;;;;;12.88;66.78;101088.37;5327921;33;33654;-84
2023/01/06 12:21:17;;;;;;;2.25;1.90;;;;;;;13.10;64.87;101084.91;5323007;33;33670;-84
2023/01/06 12:24:20;;;;;;;5.07;2.22;;;;;;;13.64;62.81;101077.81;5324229;33;34842;-84
2023/01/06 12:27:36;;;;;;;5.75;2.62;;;;;;;13.92;62.17;101069.97;5331688;33;34406;-84
2023/01/06 12:31:05;;;;;;;3.25;2.42;;;;;;;13.78;60.51;101069.75;5324003;33;34242;-89
2023/01/06 12:34:32;;;;;;;4.35;2.20;;;;;;;14.03;60.40;101073.06;5315551;33;34954;-84
2023/01/06 12:37:44;;;;;;;2.67;2.03;;;;;;;14.02;58.79;101062.44;5320652;33;34078;-85
2023/01/06 12:40:59;;;;;;;2.03;1.65;;;;;;;13.67;60.23;101064.75;5329389;33;34298;-85
2023/01/06 12:44:21;;;;;;;2.30;1.67;;;;;;;13.64;60.77;101065.13;5317279;33;33295;-85
2023/01/06 12:47:33;;;;;;;2.85;2.00;;;;;;;14.15;59.43;101076.16;5337611;33;33886;-85
2023/01/06 12:50:43;;;;;;;2.70;1.73;;;;;;;14.43;58.33;101070.16;5331086;33;32799;-85
2023/01/06 12:53:55;;;;;;;1.98;1.65;;;;;;;15.34;55.81;101059.84;5333922;33;34772;-85
2023/01/06 12:57:20;;;;;;;3.17;1.85;;;;;;;16.03;54.15;101051.13;5321702;33;34028;-84
2023/01/06 13:00:43;;;;;;;3.35;1.90;;;;;;;16.19;52.67;101042.66;5325841;33;34553;-85
2023/01/06 13:04:17;;;;;;;1.95;1.73;;;;;;;16.75;52.38;101044.44;5339644;33;34028;-85
2023/01/06 13:07:35;;;;;;;2.05;1.73;;;;;;;15.26;55.04;101043.69;5342602;33;35144;-85
2023/01/06 13:10:59;;;;;;;3.00;1.87;;;;;;;14.57;57.55;101052.25;5342977;33;34348;-85
2023/01/06 13:14:26;;;;;;;2.30;2.10;;;;;;;13.86;61.00;101052.59;5329774;33;32736;-85
2023/01/06 13:18:04;;;;;;;3.55;2.45;;;;;;;13.38;62.28;101049.25;5330013;33;33468;-84
2023/01/06 13:21:17;;;;;;;3.10;2.20;;;;;;;12.61;64.80;101049.97;5329535;33;32826;-84
2023/01/06 13:24:41;;;;;;;3.05;2.15;;;;;;;12.16;67.18;101045.19;5342554;33;33623;-84
2023/01/06 13:28:05;;;;;;;2.58;2.30;;;;;;;11.66;70.57;101054.31;5342966;33;34242;-85
2023/01/06 13:31:57;;;;;;;5.68;2.72;;;;;;;11.55;71.07;101056.34;5342956;33;33961;-84
2023/01/06 13:35:33;;;;;;;6.50;2.55;;;;;;;11.29;71.63;101051.09;5326071;33;33720;-83
2023/01/06 13:38:56;;;;;;;5.82;2.80;;;;;;;11.00;74.82;101058.78;5343277;33;33508;-83
2023/01/06 13:42:03;;;;;;;3.33;2.67;;;;;;;10.66;75.78;101062.34;5342863;33;34863;-84
2023/01/06 13:45:13;;;;;;;3.53;2.47;;;;;;;10.66;76.51;101065.88;5342778;33;34160;-84
2023/01/06 13:48:24;;;;;;;5.05;2.83;;;;;;;10.71;76.93;101065.41;5346674;33;34291;-87
2023/01/06 13:51:33;;;;;;;6.80;2.95;;;;;;;10.64;76.90;101069.72;5345801;33;34277;-86
2023/01/06 13:54:39;;;;;;;;;;;;;;;10.69;77.15;101061.19;5334821;33;32826;-83
2023/01/06 13:57:42;;;;;;;4.47;2.80;;;;;;;10.64;79.80;101062.50;5345998;33;34404;-83
2023/01/06 14:01:07;;;;;;;4.00;2.72;;;;;;;10.68;81.39;101057.66;5333860;33;32721;-83
2023/01/06 14:04:40;;;;;;;3.45;3.00;;;;;;;10.56;81.61;101046.31;5331306;33;33347;-84
2023/01/06 14:07:59;;;;;;;3.53;2.85;;;;;;;10.42;82.35;101046.94;5339541;33;34242;-83
2023/01/06 14:11:23;;;;;;;3.92;2.87;;;;;;;10.35;81.86;101046.69;5328840;33;32256;-84
2023/01/06 14:14:31;;;;;;;5.25;2.45;;;;;;;10.38;79.29;101041.03;5342412;33;34107;-83
2023/01/06 14:17:37;;;;;;;4.32;2.35;;;;;;;10.33;79.67;101037.13;5343344;33;33920;-83
2023/01/06 14:20:40;;;;;;;4.20;2.97;;;;;;;10.22;82.41;101040.87;5349939;33;35117;-83
